Time;durP1;ratioP1;P1;durP2;ratioP2;P2;SDS_P1;SDS_P2;PMS_P1;PMS_P2;Temp;Humidity;BMP_temperature;BMP_pressure;BME280_temperature;BME280_humidity;BME280_pressure;Samples;Min_cycle;Max_cycle;Signal;HPM_P1;HPM_P2
2023/07/08 00:01:18;;;;;;;4.45;2.50;;;;;;;21.44;52.36;101388.19;3563514;40;20059;-70
2023/07/08 00:03:44;;;;;;;6.43;2.80;;;;;;;21.41;53.00;101379.38;3563390;40;20068;-72
2023/07/08 00:06:25;;;;;;;3.63;2.55;;;;;;;21.33;52.66;101374.66;3563796;40;20327;-71
2023/07/08 00:08:50;;;;;;;4.50;2.58;;;;;;;21.26;53.20;101365.34;3560038;40;20045;-72
2023/07/08 00:11:17;;;;;;;4.80;3.20;;;;;;;21.25;53.16;101377.28;3559734;40;20371;-72
2023/07/08 00:13:43;;;;;;;4.35;2.60;;;;;;;21.25;53.57;101374.53;3566107;40;20065;-72
2023/07/08 00:16:16;;;;;;;4.10;3.20;;;;;;;21.20;53.81;101368.69;3563336;40;20289;-71
2023/07/08 00:18:42;;;;;;;5.25;2.92;;;;;;;21.18;53.16;101367.94;3563813;40;20061;-72
2023/07/08 00:21:17;;;;;;;5.97;2.90;;;;;;;20.97;53.31;101346.34;3563105;40;20124;-72
2023/07/08 00:23:50;;;;;;;3.13;2.72;;;;;;;21.10;53.88;101368.72;3565244;40;20052;-71
2023/07/08 00:26:26;;;;;;;3.10;2.75;;;;;;;21.04;53.44;101364.72;3562741;40;20061;-72
2023/07/08 00:28:54;;;;;;;3.67;3.05;;;;;;;21.06;53.29;101368.16;3560699;40;20390;-73
2023/07/08 00:31:23;;;;;;;3.45;3.05;;;;;;;21.04;53.65;101366.59;3563188;40;20057;-73
2023/07/08 00:33:55;;;;;;;4.53;2.80;;;;;;;20.98;53.89;101370.78;3560855;40;20077;-73
2023/07/08 00:36:23;;;;;;;5.35;3.05;;;;;;;20.95;54.15;101360.13;3571616;40;20075;-71
2023/07/08 00:38:49;;;;;;;6.13;3.30;;;;;;;20.75;54.45;101339.38;3564890;40;20052;-73
2023/07/08 00:41:31;;;;;;;4.85;3.30;;;;;;;20.83;54.50;101369.53;3559118;40;20315;-71
2023/07/08 00:43:59;;;;;;;4.85;3.28;;;;;;;20.77;55.77;101350.97;3559800;40;20057;-73
2023/07/08 00:46:29;;;;;;;3.92;3.17;;;;;;;20.71;55.35;101357.03;3560398;40;20404;-72
2023/07/08 00:49:06;;;;;;;5.38;3.20;;;;;;;20.62;54.39;101354.19;3564441;40;20061;-71
2023/07/08 00:51:40;;;;;;;5.10;3.15;;;;;;;20.54;55.72;101340.41;3564791;40;20488;-70
2023/07/08 00:54:12;;;;;;;4.95;3.10;;;;;;;19.91;55.82;101247.22;3564209;40;20057;-70
2023/07/08 00:57:01;;;;;;;4.05;3.03;;;;;;;20.49;55.74;101348.16;3565310;40;20123;-70
2023/07/08 00:59:38;;;;;;;4.65;2.78;;;;;;;20.44;56.03;101350.47;3562265;40;20127;-70
2023/07/08 01:02:13;;;;;;;4.88;3.35;;;;;;;20.39;55.79;101352.75;3564660;40;20056;-71
2023/07/08 01:04:54;;;;;;;8.45;3.35;;;;;;;20.33;56.87;101347.88;3564062;40;20133;-71
2023/07/08 01:07:22;;;;;;;5.60;2.90;;;;;;;20.25;56.82;101343.16;3563151;40;20064;-70
2023/07/08 01:10:05;;;;;;;3.40;3.03;;;;;;;20.23;56.96;101342.44;3565269;40;20670;-70
2023/07/08 01:12:45;;;;;;;6.35;3.10;;;;;;;20.17;57.06;101338.44;3564009;40;20367;-70
2023/07/08 01:15:12;;;;;;;4.05;2.95;;;;;;;20.14;57.26;101344.19;3564750;40;20131;-72
2023/07/08 01:17:39;;;;;;;4.32;2.95;;;;;;;20.10;57.17;101342.72;3563135;40;20045;-71
2023/07/08 01:20:08;;;;;;;4.65;3.20;;;;;;;20.07;57.73;101348.47;3560664;40;20259;-71
2023/07/08 01:22:38;;;;;;;4.78;2.88;;;;;;;20.04;57.18;101340.56;3566140;40;20057;-72
2023/07/08 01:25:06;;;;;;;3.70;2.85;;;;;;;20.03;58.25;101346.19;3573614;40;20084;-71
2023/07/08 01:27:38;;;;;;;5.45;2.97;;;;;;;20.01;57.93;101340.84;3567131;40;20064;-71
2023/07/08 01:30:06;;;;;;;5.93;3.13;;;;;;;;;;3566848;40;20408;-71
2023/07/08 01:32:39;;;;;;;4.57;2.80;;;;;;;19.94;58.36;101336.97;3567770;40;20316;-70
2023/07/08 01:35:08;;;;;;;5.65;3.38;;;;;;;19.95;58.17;101330.53;3565485;40;20284;-72
2023/07/08 01:37:41;;;;;;;4.25;3.17;;;;;;;19.94;57.36;101332.38;3564121;40;20369;-71
2023/07/08 01:40:33;;;;;;;6.07;3.67;;;;;;;19.90;58.24;101341.00;3560883;40;20090;-70
2023/07/08 01:43:00;;;;;;;6.82;3.70;;;;;;;19.90;57.92;101336.41;3564714;40;20386;-70
2023/07/08 01:45:34;;;;;;;3.63;3.33;;;;;;;19.90;57.33;101333.69;3565987;40;20298;-71
2023/07/08 01:48:08;;;;;;;6.78;3.50;;;;;;;19.90;57.59;101341.88;3564812;40;20064;-69
2023/07/08 01:50:41;;;;;;;5.20;3.85;;;;;;;19.91;57.42;101340.00;3564012;40;20092;-71
2023/07/08 01:53:16;;;;;;;3.65;3.33;;;;;;;19.92;57.67;101322.63;3565544;40;20057;-70
2023/07/08 01:55:42;;;;;;;5.93;3.50;;;;;;;19.76;57.47;101295.94;3564199;40;20502;-71
2023/07/08 01:58:07;;;;;;;6.03;3.05;;;;;;;19.87;57.59;101314.00;3561203;40;20068;-70
2023/07/08 02:00:33;;;;;;;3.38;3.08;;;;;;;19.91;57.69;101319.03;3564022;40;20065;-70
2023/07/08 02:02:59;;;;;;;4.63;3.10;;;;;;;19.90;57.91;101314.59;3562398;40;20053;-70
2023/07/08 02:05:24;;;;;;;5.03;3.38;;;;;;;19.86;57.68;101306.84;3564214;40;20063;-71
2023/07/08 02:07:50;;;;;;;3.38;3.00;;;;;;;19.77;57.80;101296.78;3563867;40;20295;-70
2023/07/08 02:10:16;;;;;;;5.00;3.50;;;;;;;19.82;57.76;101306.28;3561874;40;20086;-70
2023/07/08 02:12:41;;;;;;;5.47;3.50;;;;;;;19.82;57.29;101305.38;3562748;40;20670;-72
2023/07/08 02:15:09;;;;;;;8.18;3.30;;;;;;;19.64;57.90;101270.66;3564510;40;20071;-71
2023/07/08 02:17:35;;;;;;;6.57;3.40;;;;;;;19.79;57.82;101300.22;3560413;40;20148;-71
2023/07/08 02:20:01;;;;;;;4.30;3.22;;;;;;;19.77;58.10;101296.78;3565147;40;20071;-71
2023/07/08 02:22:26;;;;;;;7.43;3.20;;;;;;;19.75;58.45;101293.31;3565582;40;20067;-71
2023/07/08 02:24:53;;;;;;;5.45;3.33;;;;;;;19.73;58.01;101295.31;3566902;40;20053;-71
2023/07/08 02:27:18;;;;;;;4.72;3.28;;;;;;;19.71;57.80;101292.75;3562156;40;20306;-70
2023/07/08 02:29:44;;;;;;;3.97;3.13;;;;;;;19.67;58.63;101292.19;3565531;40;20075;-71
2023/07/08 02:32:10;;;;;;;3.40;3.10;;;;;;;19.65;58.39;101287.88;3563934;40;20303;-72
2023/07/08 02:34:37;;;;;;;7.65;3.35;;;;;;;19.57;58.16;101283.09;3564597;40;20073;-70
2023/07/08 02:37:03;;;;;;;4.82;3.45;;;;;;;19.58;59.19;101271.19;3564176;40;20301;-71
2023/07/08 02:39:28;;;;;;;3.97;3.20;;;;;;;19.54;58.74;101269.75;3569151;40;20455;-71
2023/07/08 02:41:54;;;;;;;4.88;3.35;;;;;;;19.36;58.62;101249.63;3562081;40;20056;-71
2023/07/08 02:44:20;;;;;;;3.38;3.08;;;;;;;19.49;58.65;101272.03;3558591;40;20067;-70
2023/07/08 02:46:45;;;;;;;15.52;13.00;;;;;;;19.30;58.91;101250.19;3559902;40;20107;-70
2023/07/08 02:49:11;;;;;;;8.93;7.63;;;;;;;18.47;59.66;101116.94;3562281;40;20057;-71
2023/07/08 02:51:36;;;;;;;7.25;5.80;;;;;;;19.40;58.98;101278.31;3562523;40;20299;-72
2023/07/08 02:54:03;;;;;;;4.03;3.60;;;;;;;19.36;59.76;101276.91;3562842;40;20060;-71
2023/07/08 02:56:29;;;;;;;6.47;3.90;;;;;;;19.33;59.61;101282.63;3560989;40;20064;-72
2023/07/08 02:58:54;;;;;;;4.10;3.15;;;;;;;19.30;59.74;101283.78;3564001;40;20123;-71
2023/07/08 03:01:20;;;;;;;3.63;3.10;;;;;;;19.25;59.08;101297.84;3563533;40;20068;-72
2023/07/08 03:03:47;;;;;;;5.40;3.33;;;;;;;19.23;60.26;101294.38;3560645;40;20063;-71
2023/07/08 03:06:14;;;;;;;5.95;3.40;;;;;;;19.20;60.24;101300.09;3560142;40;20372;-71
2023/07/08 03:08:40;;;;;;;5.05;3.03;;;;;;;19.19;60.75;101298.38;3563369;40;20045;-71
2023/07/08 03:11:08;;;;;;;5.25;3.20;;;;;;;19.05;60.13;101281.56;3561961;40;20052;-71
2023/07/08 03:13:35;;;;;;;3.58;3.13;;;;;;;19.04;59.95;101277.97;3562323;40;20092;-71
2023/07/08 03:16:02;;;;;;;5.13;3.47;;;;;;;18.98;60.43;101275.78;3563931;40;20351;-71
2023/07/08 03:18:29;;;;;;;7.30;3.70;;;;;;;19.05;60.40;101296.03;3562816;40;20146;-71
2023/07/08 03:20:57;;;;;;;3.67;3.30;;;;;;;19.03;60.97;101303.50;3563435;40;20393;-71
2023/07/08 03:23:25;;;;;;;3.72;3.42;;;;;;;19.00;60.86;101298.34;3560594;40;20383;-69
2023/07/08 03:25:52;;;;;;;5.32;3.55;;;;;;;18.97;60.74;101295.88;3561650;40;20390;-71
2023/07/08 03:28:18;;;;;;;4.15;3.22;;;;;;;18.94;61.71;101288.84;3560552;40;20090;-70
2023/07/08 03:30:50;;;;;;;5.07;3.60;;;;;;;18.93;61.34;101297.13;3559280;40;20084;-69
2023/07/08 03:33:16;;;;;;;5.05;3.38;;;;;;;18.86;61.12;101290.50;3557360;40;21072;-70
2023/07/08 03:35:42;;;;;;;4.75;3.55;;;;;;;18.86;60.85;101296.81;3561737;40;20057;-70
2023/07/08 03:38:07;;;;;;;4.90;3.58;;;;;;;18.87;61.79;101297.69;3562582;40;20490;-70
2023/07/08 03:40:33;;;;;;;4.97;3.55;;;;;;;18.65;61.71;101266.00;3559469;40;20060;-70
2023/07/08 03:42:58;;;;;;;5.22;3.70;;;;;;;18.86;61.64;101295.97;3561272;40;20053;-70
2023/07/08 03:45:26;;;;;;;6.50;3.45;;;;;;;18.86;61.83;101302.28;3563578;40;20048;-68
2023/07/08 03:47:52;;;;;;;5.63;3.47;;;;;;;18.74;61.87;101277.00;3564457;40;20145;-68
2023/07/08 03:50:25;;;;;;;6.80;3.92;;;;;;;18.85;62.00;101308.72;3563466;40;20061;-68
2023/07/08 03:52:54;;;;;;;6.00;3.97;;;;;;;18.84;62.25;101314.31;3560819;40;20638;-68
2023/07/08 03:55:20;;;;;;;4.43;4.03;;;;;;;18.81;62.12;101320.91;3563541;40;20053;-67
2023/07/08 03:57:46;;;;;;;5.35;4.28;;;;;;;18.84;62.70;101322.47;3560484;40;20072;-67
2023/07/08 04:00:14;;;;;;;5.43;4.40;;;;;;;18.50;62.38;101257.38;3561614;40;20233;-67
2023/07/08 04:02:42;;;;;;;4.25;3.85;;;;;;;18.69;62.27;101290.13;3556252;40;20137;-68
2023/07/08 04:05:20;;;;;;;4.60;4.18;;;;;;;18.82;62.52;101310.88;3561389;40;20153;-67
2023/07/08 04:07:47;;;;;;;4.97;4.45;;;;;;;18.83;62.58;101313.44;3563042;40;20053;-66
2023/07/08 04:10:15;;;;;;;5.80;4.60;;;;;;;18.83;62.79;101315.31;3561968;40;20052;-67
2023/07/08 04:12:41;;;;;;;5.30;4.28;;;;;;;18.86;62.30;101317.75;3562717;40;20453;-69
2023/07/08 04:15:10;;;;;;;6.60;4.15;;;;;;;18.85;62.67;101318.78;3563961;40;20129;-67
2023/07/08 04:17:45;;;;;;;4.93;4.13;;;;;;;18.85;62.59;101324.22;3562661;40;20064;-68
2023/07/08 04:20:14;;;;;;;4.30;3.85;;;;;;;18.27;63.49;101216.72;3562690;40;20057;-68
2023/07/08 04:22:40;;;;;;;5.68;3.80;;;;;;;18.85;62.84;101318.78;3563936;40;20103;-68
2023/07/08 04:25:06;;;;;;;4.80;3.85;;;;;;;18.86;63.11;101325.94;3562792;40;20407;-67
2023/07/08 04:27:32;;;;;;;4.22;3.70;;;;;;;18.87;62.79;101330.38;3565556;40;20071;-71
2023/07/08 04:29:58;;;;;;;5.68;4.30;;;;;;;18.86;62.72;101317.75;3562360;40;20102;-69
2023/07/08 04:32:24;;;;;;;5.22;4.43;;;;;;;18.89;63.69;101318.34;3562106;40;20072;-68
2023/07/08 04:34:52;;;;;;;5.22;3.92;;;;;;;18.91;62.43;101321.81;3570686;40;20060;-67
2023/07/08 04:37:19;;;;;;;4.60;4.20;;;;;;;18.91;62.49;101315.50;3561686;40;20368;-68
2023/07/08 04:39:45;;;;;;;6.35;4.65;;;;;;;18.76;62.45;101285.88;3566131;40;20493;-69
2023/07/08 04:42:15;;;;;;;6.10;4.35;;;;;;;18.42;63.01;101227.22;3563873;40;20447;-69
2023/07/08 04:44:41;;;;;;;5.25;4.35;;;;;;;18.99;63.33;101312.94;3561183;40;20064;-69
2023/07/08 04:47:13;;;;;;;6.28;4.50;;;;;;;19.00;62.74;101311.97;3558652;40;20071;-68
2023/07/08 04:49:41;;;;;;;7.05;4.57;;;;;;;18.96;63.06;101314.06;3561845;40;20062;-68
2023/07/08 04:52:07;;;;;;;5.75;4.35;;;;;;;19.07;63.72;101326.75;3562840;40;20048;-67
2023/07/08 04:54:32;;;;;;;4.43;4.00;;;;;;;19.09;63.64;101313.81;3568427;40;20076;-69
2023/07/08 04:56:58;;;;;;;5.22;4.43;;;;;;;19.00;63.60;101288.28;3565467;40;20060;-68
2023/07/08 04:59:25;;;;;;;4.78;4.25;;;;;;;18.78;62.97;101245.78;3562583;40;20333;-67
2023/07/08 05:01:53;;;;;;;7.47;4.38;;;;;;;19.18;62.96;101296.63;3563790;40;20565;-67
2023/07/08 05:04:22;;;;;;;6.47;4.50;;;;;;;19.26;63.03;101295.97;3562448;40;20052;-68
2023/07/08 05:06:48;;;;;;;4.72;4.22;;;;;;;19.42;62.34;101319.97;3563958;40;20126;-70
2023/07/08 05:09:14;;;;;;;7.45;4.53;;;;;;;19.48;62.54;101319.41;3562587;40;20411;-68
2023/07/08 05:11:40;;;;;;;7.10;4.60;;;;;;;19.52;62.16;101325.44;3564746;40;20061;-67
2023/07/08 05:14:06;;;;;;;4.80;4.30;;;;;;;19.63;61.29;101315.28;3563615;40;20052;-67
2023/07/08 05:16:35;;;;;;;6.07;4.43;;;;;;;19.51;62.03;101296.44;3561705;40;20064;-68
2023/07/08 05:19:02;;;;;;;5.22;4.45;;;;;;;19.64;61.29;101297.91;3563352;40;20089;-68
2023/07/08 05:21:33;;;;;;;5.18;4.30;;;;;;;19.77;61.11;101313.16;3564208;40;20064;-69
2023/07/08 05:24:00;;;;;;;5.75;4.00;;;;;;;19.79;61.34;101322.03;3562052;40;20040;-68
2023/07/08 05:26:26;;;;;;;5.43;4.28;;;;;;;19.80;61.12;101326.50;3560605;40;20072;-68
2023/07/08 05:28:52;;;;;;;4.60;4.10;;;;;;;19.82;60.86;101322.63;3560278;40;20482;-67
2023/07/08 05:31:18;;;;;;;8.20;4.40;;;;;;;19.76;59.91;101311.41;3560463;40;20041;-67
2023/07/08 05:33:43;;;;;;;4.10;3.50;;;;;;;19.87;59.97;101309.41;3562932;40;20052;-69
2023/07/08 05:36:09;;;;;;;6.60;3.80;;;;;;;19.88;61.04;101296.63;3560713;40;20056;-67
2023/07/08 05:38:35;;;;;;;6.15;4.10;;;;;;;19.94;61.19;101298.78;3563796;40;20064;-68
2023/07/08 05:41:00;;;;;;;6.72;4.25;;;;;;;19.99;60.47;101301.94;3564131;40;20128;-69
2023/07/08 05:43:27;;;;;;;4.80;3.88;;;;;;;20.01;60.58;101305.38;3562645;40;20283;-68
2023/07/08 05:46:02;;;;;;;8.77;4.50;;;;;;;20.10;60.14;101315.44;3563926;40;20167;-66
2023/07/08 05:48:28;;;;;;;5.57;4.05;;;;;;;20.13;60.62;101304.22;3561713;40;20314;-69
2023/07/08 05:50:54;;;;;;;8.23;4.20;;;;;;;20.23;59.98;101314.28;3564682;40;20055;-68
2023/07/08 05:53:20;;;;;;;6.13;4.50;;;;;;;20.14;58.41;101281.41;3558868;40;20419;-68
2023/07/08 05:55:48;;;;;;;5.35;4.20;;;;;;;20.38;58.75;101304.63;3565089;40;20056;-68
2023/07/08 05:58:15;;;;;;;4.78;4.10;;;;;;;20.46;58.34;101309.38;3559615;40;20399;-67
2023/07/08 06:00:42;;;;;;;5.95;4.07;;;;;;;20.53;57.76;101305.06;3562249;40;20721;-67
2023/07/08 06:03:09;;;;;;;7.75;4.68;;;;;;;20.36;58.11;101265.66;3560517;40;20056;-66
2023/07/08 06:05:37;;;;;;;6.30;4.22;;;;;;;20.77;58.28;101312.72;3562848;40;20057;-65
2023/07/08 06:08:05;;;;;;;5.97;4.38;;;;;;;20.89;56.94;101319.72;3559984;40;20154;-66
2023/07/08 06:10:30;;;;;;;7.38;4.57;;;;;;;20.99;57.15;101317.81;3562489;40;20080;-65
2023/07/08 06:12:56;;;;;;;5.97;4.18;;;;;;;21.13;56.76;101316.47;3561751;40;20082;-66
2023/07/08 06:15:22;;;;;;;6.35;4.40;;;;;;;20.60;56.68;101211.44;3562566;40;20056;-66
2023/07/08 06:17:47;;;;;;;7.45;4.43;;;;;;;21.42;56.52;101327.28;3563330;40;20075;-67
2023/07/08 06:20:13;;;;;;;8.07;4.38;;;;;;;21.56;56.72;101325.88;3564022;40;20064;-67
2023/07/08 06:22:39;;;;;;;7.03;4.43;;;;;;;21.74;55.74;101325.91;3561838;40;20349;-66
2023/07/08 06:25:05;;;;;;;6.28;4.30;;;;;;;21.87;54.63;101325.53;3563117;40;20290;-66
2023/07/08 06:27:31;;;;;;;6.20;4.55;;;;;;;22.03;54.12;101322.94;3562362;40;20056;-66
2023/07/08 06:29:56;;;;;;;5.63;4.47;;;;;;;22.16;53.63;101323.41;3562525;40;20063;-67
2023/07/08 06:32:22;;;;;;;6.22;4.65;;;;;;;22.34;53.90;101320.66;3561736;40;20387;-68
2023/07/08 06:34:48;;;;;;;7.22;4.55;;;;;;;22.46;52.10;101322.13;3559442;40;20076;-66
2023/07/08 06:37:13;;;;;;;6.13;4.50;;;;;;;22.65;51.88;101320.19;3562888;40;20143;-66
2023/07/08 06:39:39;;;;;;;6.07;4.30;;;;;;;22.77;51.33;101321.66;3562990;40;20060;-67
2023/07/08 06:42:06;;;;;;;5.15;4.05;;;;;;;22.90;50.78;101324.81;3561076;40;20400;-67
2023/07/08 06:44:31;;;;;;;7.57;4.57;;;;;;;23.05;50.69;101321.47;3552829;40;20060;-66
2023/07/08 06:46:57;;;;;;;5.32;4.25;;;;;;;23.25;50.65;101330.28;3562329;40;20056;-67
2023/07/08 06:49:23;;;;;;;5.90;4.22;;;;;;;23.23;50.12;101300.28;3558884;40;20692;-69
2023/07/08 06:51:48;;;;;;;7.07;4.85;;;;;;;23.51;49.19;101319.25;3558643;40;20319;-71
2023/07/08 06:54:14;;;;;;;5.55;4.32;;;;;;;23.75;48.87;101333.03;3558686;40;20064;-70
2023/07/08 06:56:41;;;;;;;5.47;4.30;;;;;;;23.70;48.15;101294.28;3559094;40;20060;-70
2023/07/08 06:59:09;;;;;;;7.55;4.85;;;;;;;24.03;48.52;101325.34;3563897;40;20098;-69
2023/07/08 07:01:36;;;;;;;8.48;4.47;;;;;;;24.24;48.66;101319.34;3561113;40;20584;-70
2023/07/08 07:04:03;;;;;;;4.85;4.05;;;;;;;24.47;48.05;101321.44;3568760;40;20051;-71
2023/07/08 07:06:29;;;;;;;6.75;4.60;;;;;;;24.68;47.32;101326.41;3561558;40;20712;-69
2023/07/08 07:08:55;;;;;;;6.60;4.40;;;;;;;24.64;46.13;101298.38;3570982;40;20378;-69
2023/07/08 07:11:21;;;;;;;9.00;4.60;;;;;;;24.97;46.01;101323.03;3560019;40;20438;-70
2023/07/08 07:13:47;;;;;;;6.25;4.47;;;;;;;25.07;46.56;101326.44;3559621;40;20392;-70
2023/07/08 07:16:13;;;;;;;5.03;4.18;;;;;;;25.20;45.50;101317.66;3560289;40;20071;-70
2023/07/08 07:18:39;;;;;;;10.13;4.90;;;;;;;25.33;45.16;101315.16;3559864;40;20089;-70
2023/07/08 07:21:04;;;;;;;6.93;4.55;;;;;;;25.41;45.45;101306.88;3559300;40;20057;-69
2023/07/08 07:23:30;;;;;;;8.27;4.65;;;;;;;25.58;43.83;101315.91;3560073;40;20475;-69
2023/07/08 07:25:57;;;;;;;6.25;5.10;;;;;;;25.24;44.28;101236.44;3564127;40;20357;-72
2023/07/08 07:28:23;;;;;;;7.72;4.53;;;;;;;25.78;44.89;101304.41;3564154;40;20057;-70
2023/07/08 07:30:58;;;;;;;7.22;4.53;;;;;;;26.05;43.64;101317.66;3563322;40;20053;-70
2023/07/08 07:33:24;;;;;;;5.60;4.38;;;;;;;26.23;43.50;101320.13;3559018;40;20080;-68
2023/07/08 07:35:50;;;;;;;6.53;4.63;;;;;;;26.32;43.06;101320.88;3563950;40;20319;-70
2023/07/08 07:38:16;;;;;;;8.35;4.85;;;;;;;26.35;42.42;101323.25;3562380;40;20052;-70
2023/07/08 07:40:43;;;;;;;8.75;4.70;;;;;;;26.48;43.47;101318.00;3563038;40;20099;-70
2023/07/08 07:43:10;;;;;;;7.00;4.95;;;;;;;26.66;42.43;101325.91;3560325;40;20057;-69
2023/07/08 07:45:36;;;;;;;10.15;4.82;;;;;;;26.81;42.81;101317.66;3562774;40;20396;-71
2023/07/08 07:48:02;;;;;;;9.55;5.07;;;;;;;26.99;40.72;101325.53;3560699;40;20375;-69
2023/07/08 07:50:28;;;;;;;6.22;4.65;;;;;;;26.97;41.54;101306.44;3559182;40;20075;-69
2023/07/08 07:52:54;;;;;;;8.40;4.75;;;;;;;27.19;42.02;101321.22;3558979;40;20113;-69
2023/07/08 07:55:20;;;;;;;6.65;4.40;;;;;;;27.31;41.77;101302.25;3560467;40;20063;-70
2023/07/08 07:57:46;;;;;;;6.85;4.80;;;;;;;27.56;41.25;101313.78;3560086;40;20130;-72
2023/07/08 08:00:16;;;;;;;7.82;4.93;;;;;;;27.40;39.46;101265.16;3561701;40;20067;-68
2023/07/08 08:02:42;;;;;;;7.15;4.72;;;;;;;27.75;39.32;101309.53;3562311;40;20860;-70
2023/07/08 08:05:08;;;;;;;7.00;4.72;;;;;;;27.87;39.32;101305.22;3563358;40;20060;-69
2023/07/08 08:07:36;;;;;;;8.93;5.43;;;;;;;27.89;40.18;101280.19;3564601;40;20060;-71
2023/07/08 08:10:03;;;;;;;7.20;4.65;;;;;;;28.25;41.56;101310.47;3561936;40;20139;-70
2023/07/08 08:12:29;;;;;;;9.60;4.60;;;;;;;28.35;40.13;101323.97;3564621;40;20099;-69
2023/07/08 08:14:54;;;;;;;9.63;4.88;;;;;;;28.50;40.29;101323.91;3559529;40;20080;-71
2023/07/08 08:17:20;;;;;;;8.55;4.43;;;;;;;28.70;40.13;101330.44;3559477;40;20061;-69
2023/07/08 08:19:46;;;;;;;6.78;5.03;;;;;;;28.83;39.82;101332.44;3563435;40;20064;-70
2023/07/08 08:22:11;;;;;;;5.97;4.93;;;;;;;28.93;38.12;101332.94;3563059;40;20286;-70
2023/07/08 08:24:37;;;;;;;10.30;5.32;;;;;;;29.02;37.64;101328.13;3560755;40;20440;-70
2023/07/08 08:27:03;;;;;;;7.07;5.13;;;;;;;28.99;36.98;101336.78;3562145;40;20400;-70
2023/07/08 08:29:29;;;;;;;7.35;5.07;;;;;;;29.13;37.35;101341.41;3560503;40;20408;-70
2023/07/08 08:31:54;;;;;;;7.20;5.32;;;;;;;29.29;37.12;101345.75;3562961;40;20063;-70
2023/07/08 08:34:20;;;;;;;7.90;5.13;;;;;;;29.41;36.77;101340.47;3562536;40;20601;-70
2023/07/08 08:36:46;;;;;;;8.45;5.18;;;;;;;29.64;37.12;101348.47;3560531;40;20090;-69
2023/07/08 08:39:13;;;;;;;8.05;5.35;;;;;;;29.76;35.77;101346.81;3559053;40;20216;-72
2023/07/08 08:41:43;;;;;;;7.47;5.63;;;;;;;29.96;36.70;101346.84;3560521;40;20513;-71
2023/07/08 08:44:23;;;;;;;7.32;5.70;;;;;;;30.17;38.03;101349.44;3562414;40;20067;-70
2023/07/08 08:47:34;;;;;;;11.05;5.82;;;;;;;30.35;35.97;101345.22;3562783;40;20206;-69
2023/07/08 08:50:33;;;;;;;7.10;4.70;;;;;;;30.56;34.58;101341.38;3566936;40;20397;-71
2023/07/08 08:53:10;;;;;;;7.80;5.28;;;;;;;30.69;36.72;101325.56;3563702;40;20057;-70
2023/07/08 08:55:36;;;;;;;6.90;5.80;;;;;;;30.96;32.98;101353.31;3563428;40;20471;-71
2023/07/08 08:58:41;;;;;;;8.65;6.50;;;;;;;31.08;31.75;101351.59;3561331;40;20073;-70
2023/07/08 09:01:17;;;;;;;6.78;5.53;;;;;;;31.23;33.08;101360.50;3564813;40;20053;-70
2023/07/08 09:03:55;;;;;;;7.70;5.60;;;;;;;31.40;32.05;101360.91;3561304;40;20106;-70
2023/07/08 09:06:27;;;;;;;8.18;5.93;;;;;;;31.48;33.03;101361.72;3562410;40;20049;-68
2023/07/08 09:09:00;;;;;;;7.47;5.78;;;;;;;31.62;32.23;101358.69;3559853;40;20478;-71
2023/07/08 09:11:44;;;;;;;9.90;6.65;;;;;;;31.81;30.67;101356.00;3561466;40;20064;-70
2023/07/08 09:14:26;;;;;;;8.05;6.10;;;;;;;31.98;31.18;101351.66;3560776;40;20300;-68
2023/07/08 09:17:23;;;;;;;8.35;5.63;;;;;;;32.11;32.50;101346.00;3564491;40;20069;-68
2023/07/08 09:20:04;;;;;;;7.43;5.78;;;;;;;32.26;31.91;101333.69;3562014;40;20087;-68
2023/07/08 09:22:45;;;;;;;8.15;6.28;;;;;;;32.38;30.21;101340.22;3558500;40;20049;-71
2023/07/08 09:25:28;;;;;;;8.93;6.13;;;;;;;32.02;30.50;101275.03;3560069;40;20064;-68
2023/07/08 09:27:53;;;;;;;9.27;6.53;;;;;;;32.51;30.25;101342.06;3563141;40;20046;-68
2023/07/08 09:30:24;;;;;;;8.43;6.40;;;;;;;32.54;29.84;101353.63;3559579;40;20068;-71
2023/07/08 09:32:51;;;;;;;8.13;6.75;;;;;;;32.59;29.79;101345.41;3565033;40;20412;-68
2023/07/08 09:35:27;;;;;;;9.80;6.57;;;;;;;32.65;29.40;101331.66;3563319;40;20486;-69
2023/07/08 09:37:55;;;;;;;10.65;6.60;;;;;;;32.81;29.97;101333.84;3561266;40;20134;-69
2023/07/08 09:40:32;;;;;;;8.10;5.70;;;;;;;33.00;30.09;101327.25;3561713;40;20552;-69
2023/07/08 09:43:24;;;;;;;7.20;6.30;;;;;;;33.25;30.39;101329.13;3563103;40;20456;-69
2023/07/08 09:45:50;;;;;;;10.30;6.35;;;;;;;33.49;31.57;101321.72;3563916;40;20052;-70
2023/07/08 09:48:23;;;;;;;7.93;6.13;;;;;;;33.64;29.86;101326.91;3561925;40;20122;-70
2023/07/08 09:50:53;;;;;;;6.28;5.57;;;;;;;33.68;29.91;101317.84;3562446;40;21304;-70
2023/07/08 09:53:19;;;;;;;6.82;5.90;;;;;;;33.71;29.10;101327.66;3563727;40;20060;-71
2023/07/08 09:55:46;;;;;;;8.93;6.25;;;;;;;33.68;28.53;101309.50;3561322;40;20165;-69
2023/07/08 09:58:31;;;;;;;9.00;5.85;;;;;;;33.92;29.34;101329.09;3562400;40;20198;-71
2023/07/08 10:01:11;;;;;;;7.57;6.13;;;;;;;33.95;28.72;101332.25;3562117;40;20354;-68
2023/07/08 10:03:37;;;;;;;7.72;5.88;;;;;;;34.16;31.05;101324.47;3560210;40;20057;-69
2023/07/08 10:06:17;;;;;;;6.72;6.00;;;;;;;34.22;28.53;101306.72;3560804;40;20059;-70
2023/07/08 10:08:44;;;;;;;8.68;5.30;;;;;;;34.34;27.32;101329.94;3562042;40;20170;-70
2023/07/08 10:11:25;;;;;;;8.05;5.90;;;;;;;34.41;27.24;101325.09;3562762;40;20059;-70
2023/07/08 10:13:57;;;;;;;7.28;5.88;;;;;;;34.42;27.43;101296.09;3561437;40;20067;-70
2023/07/08 10:16:30;;;;;;;7.80;6.13;;;;;;;34.67;28.14;101336.94;3563190;40;20064;-71
2023/07/08 10:18:58;;;;;;;8.57;5.82;;;;;;;34.78;27.60;101330.47;3559016;40;20126;-70
2023/07/08 10:22:07;;;;;;;10.98;5.95;;;;;;;34.85;27.12;101321.97;3561268;40;20065;-70
2023/07/08 10:24:54;;;;;;;8.98;5.88;;;;;;;35.15;28.03;101329.38;3559998;40;20156;-70
2023/07/08 10:27:29;;;;;;;9.38;6.35;;;;;;;35.29;26.74;101323.25;3561343;40;20117;-70
2023/07/08 10:30:25;;;;;;;8.50;5.85;;;;;;;35.03;29.11;101288.31;3564119;40;20232;-70
2023/07/08 10:33:03;;;;;;;6.78;5.63;;;;;;;35.16;28.54;101284.41;3559507;40;20073;-70
2023/07/08 10:35:50;;;;;;;8.65;5.57;;;;;;;35.58;27.72;101326.94;3559425;40;20111;-69
2023/07/08 10:38:54;;;;;;;7.97;6.13;;;;;;;35.61;28.51;101324.75;3559616;40;20379;-70
2023/07/08 10:41:48;;;;;;;7.75;5.90;;;;;;;35.83;27.95;101327.69;3558855;40;20316;-70
2023/07/08 10:45:03;;;;;;;7.80;5.53;;;;;;;35.93;27.54;101328.72;3561996;40;20069;-68
2023/07/08 10:47:39;;;;;;;6.78;6.05;;;;;;;35.96;28.05;101332.97;3557972;40;20068;-69
2023/07/08 10:50:05;;;;;;;8.02;6.07;;;;;;;36.05;26.09;101334.28;3560898;40;20060;-70
2023/07/08 10:52:51;;;;;;;8.55;5.55;;;;;;;36.07;26.07;101332.09;3558429;40;20056;-70
2023/07/08 10:55:51;;;;;;;7.03;5.82;;;;;;;36.02;26.14;101337.59;3560794;40;20092;-70
2023/07/08 10:58:43;;;;;;;7.55;6.20;;;;;;;36.04;27.08;101341.00;3560986;40;20061;-70
2023/07/08 11:02:02;;;;;;;8.45;6.22;;;;;;;36.11;25.87;101340.84;3560291;40;20057;-70
2023/07/08 11:05:15;;;;;;;8.40;5.65;;;;;;;36.45;27.38;101331.34;3561449;40;20060;-69
2023/07/08 11:07:58;;;;;;;8.43;6.07;;;;;;;36.57;25.39;101334.09;3561624;40;20064;-69
2023/07/08 11:10:49;;;;;;;7.28;5.88;;;;;;;36.65;25.32;101330.84;3562582;40;20326;-69
2023/07/08 11:13:23;;;;;;;7.40;5.82;;;;;;;36.63;25.66;101333.09;3562648;40;20068;-69
2023/07/08 11:16:01;;;;;;;7.70;6.10;;;;;;;36.75;24.43;101334.91;3562293;40;20301;-69
2023/07/08 11:18:36;;;;;;;8.30;6.05;;;;;;;36.93;25.53;101334.63;3563198;40;20069;-69
2023/07/08 11:21:22;;;;;;;8.80;5.72;;;;;;;36.89;24.44;101313.84;3560500;40;20053;-70
2023/07/08 11:24:17;;;;;;;7.57;5.63;;;;;;;36.43;23.63;101248.69;3560923;40;20231;-69
2023/07/08 11:26:59;;;;;;;11.55;6.35;;;;;;;36.93;24.20;101331.81;3561884;40;20410;-69
2023/07/08 11:29:50;;;;;;;7.43;5.90;;;;;;;36.16;24.68;101227.00;3562611;40;20391;-69
2023/07/08 11:32:23;;;;;;;7.32;5.90;;;;;;;36.99;25.18;101325.22;3562226;40;20130;-70
2023/07/08 11:34:53;;;;;;;6.63;5.90;;;;;;;37.22;25.98;101328.88;3562516;40;21324;-69
2023/07/08 11:37:21;;;;;;;7.38;6.38;;;;;;;37.31;23.89;101327.31;3564037;40;20339;-69
2023/07/08 11:40:17;;;;;;;9.30;6.10;;;;;;;37.40;23.83;101325.75;3559596;40;20432;-70
2023/07/08 11:42:49;;;;;;;6.53;5.88;;;;;;;37.62;22.79;101323.78;3564396;40;20052;-69